sensor_id;sensor_type;location;lat;lon;timestamp;P1;durP1;ratioP1;P2;durP2;ratioP2
10711;SDS011;5407;51.234;6.804;2023-12-14T00:01:56;47.63;;;30.20;;
10711;SDS011;5407;51.234;6.804;2023-12-14T00:04:34;45.90;;;31.23;;
10711;SDS011;5407;51.234;6.804;2023-12-14T00:07:03;46.37;;;30.67;;
10711;SDS011;5407;51.234;6.804;2023-12-14T00:09:31;49.80;;;30.50;;
10711;SDS011;5407;51.234;6.804;2023-12-14T00:12:05;45.33;;;30.53;;
10711;SDS011;5407;51.234;6.804;2023-12-14T00:14:36;43.43;;;30.77;;
10711;SDS011;5407;51.234;6.804;2023-12-14T00:17:08;46.60;;;32.30;;
10711;SDS011;5407;51.234;6.804;2023-12-14T00:19:44;46.03;;;30.17;;
10711;SDS011;5407;51.234;6.804;2023-12-14T00:22:12;44.57;;;31.27;;
10711;SDS011;5407;51.234;6.804;2023-12-14T00:24:44;43.73;;;30.03;;
10711;SDS011;5407;51.234;6.804;2023-12-14T00:27:18;43.33;;;28.57;;
10711;SDS011;5407;51.234;6.804;2023-12-14T00:29:53;39.87;;;28.77;;
10711;SDS011;5407;51.234;6.804;2023-12-14T00:32:24;38.70;;;27.93;;
10711;SDS011;5407;51.234;6.804;2023-12-14T00:34:52;38.60;;;27.43;;
10711;SDS011;5407;51.234;6.804;2023-12-14T00:37:19;42.33;;;27.97;;
10711;SDS011;5407;51.234;6.804;2023-12-14T00:39:56;41.03;;;28.10;;
10711;SDS011;5407;51.234;6.804;2023-12-14T00:42:36;38.97;;;27.63;;
10711;SDS011;5407;51.234;6.804;2023-12-14T00:45:09;36.97;;;26.50;;
10711;SDS011;5407;51.234;6.804;2023-12-14T00:47:40;40.23;;;27.37;;
10711;SDS011;5407;51.234;6.804;2023-12-14T00:50:12;39.97;;;27.50;;
10711;SDS011;5407;51.234;6.804;2023-12-14T00:52:47;38.90;;;27.03;;
10711;SDS011;5407;51.234;6.804;2023-12-14T00:55:16;43.43;;;27.73;;
10711;SDS011;5407;51.234;6.804;2023-12-14T00:57:47;36.83;;;26.27;;
10711;SDS011;5407;51.234;6.804;2023-12-14T01:00:20;36.27;;;26.47;;
10711;SDS011;5407;51.234;6.804;2023-12-14T01:06:11;39.70;;;25.87;;
10711;SDS011;5407;51.234;6.804;2023-12-14T01:08:46;37.57;;;25.00;;
10711;SDS011;5407;51.234;6.804;2023-12-14T01:11:18;36.70;;;24.63;;
10711;SDS011;5407;51.234;6.804;2023-12-14T01:13:49;38.07;;;25.33;;
10711;SDS011;5407;51.234;6.804;2023-12-14T01:16:23;35.57;;;25.17;;
10711;SDS011;5407;51.234;6.804;2023-12-14T01:18:56;36.37;;;25.13;;
10711;SDS011;5407;51.234;6.804;2023-12-14T01:21:27;38.40;;;25.87;;
10711;SDS011;5407;51.234;6.804;2023-12-14T01:24:02;36.87;;;25.93;;
10711;SDS011;5407;51.234;6.804;2023-12-14T01:26:42;35.60;;;25.23;;
10711;SDS011;5407;51.234;6.804;2023-12-14T01:29:13;35.20;;;25.57;;
10711;SDS011;5407;51.234;6.804;2023-12-14T01:31:45;37.77;;;26.73;;
10711;SDS011;5407;51.234;6.804;2023-12-14T01:34:23;40.00;;;25.83;;
10711;SDS011;5407;51.234;6.804;2023-12-14T01:36:52;39.03;;;26.13;;
10711;SDS011;5407;51.234;6.804;2023-12-14T01:39:24;35.70;;;24.43;;
10711;SDS011;5407;51.234;6.804;2023-12-14T01:41:56;31.73;;;22.60;;
10711;SDS011;5407;51.234;6.804;2023-12-14T01:44:27;33.43;;;22.43;;
10711;SDS011;5407;51.234;6.804;2023-12-14T01:46:58;34.77;;;23.87;;
10711;SDS011;5407;51.234;6.804;2023-12-14T01:49:35;34.97;;;24.40;;
10711;SDS011;5407;51.234;6.804;2023-12-14T01:52:09;36.37;;;24.87;;
10711;SDS011;5407;51.234;6.804;2023-12-14T01:54:47;36.07;;;23.80;;
10711;SDS011;5407;51.234;6.804;2023-12-14T01:57:17;37.70;;;25.37;;
10711;SDS011;5407;51.234;6.804;2023-12-14T01:59:46;33.73;;;23.67;;
10711;SDS011;5407;51.234;6.804;2023-12-14T02:02:24;31.67;;;23.97;;
10711;SDS011;5407;51.234;6.804;2023-12-14T02:04:53;33.87;;;25.20;;
10711;SDS011;5407;51.234;6.804;2023-12-14T02:07:21;32.10;;;23.87;;
10711;SDS011;5407;51.234;6.804;2023-12-14T02:09:52;26.60;;;21.07;;
10711;SDS011;5407;51.234;6.804;2023-12-14T02:12:19;29.23;;;21.87;;
10711;SDS011;5407;51.234;6.804;2023-12-14T02:14:48;28.03;;;21.20;;
10711;SDS011;5407;51.234;6.804;2023-12-14T02:17:15;24.83;;;20.60;;
10711;SDS011;5407;51.234;6.804;2023-12-14T02:19:43;24.07;;;20.20;;
10711;SDS011;5407;51.234;6.804;2023-12-14T02:22:10;23.97;;;20.33;;
10711;SDS011;5407;51.234;6.804;2023-12-14T02:24:38;25.77;;;20.70;;
10711;SDS011;5407;51.234;6.804;2023-12-14T02:27:05;24.10;;;20.50;;
10711;SDS011;5407;51.234;6.804;2023-12-14T02:29:32;24.67;;;20.00;;
10711;SDS011;5407;51.234;6.804;2023-12-14T02:31:59;20.70;;;17.23;;
10711;SDS011;5407;51.234;6.804;2023-12-14T02:34:27;17.87;;;15.97;;
10711;SDS011;5407;51.234;6.804;2023-12-14T02:36:57;18.70;;;16.37;;
10711;SDS011;5407;51.234;6.804;2023-12-14T02:39:25;16.50;;;14.70;;
10711;SDS011;5407;51.234;6.804;2023-12-14T02:41:54;16.33;;;14.63;;
10711;SDS011;5407;51.234;6.804;2023-12-14T02:44:21;15.03;;;13.27;;
10711;SDS011;5407;51.234;6.804;2023-12-14T02:46:51;12.63;;;11.37;;
10711;SDS011;5407;51.234;6.804;2023-12-14T02:49:20;12.83;;;11.63;;
10711;SDS011;5407;51.234;6.804;2023-12-14T02:51:50;12.60;;;11.37;;
10711;SDS011;5407;51.234;6.804;2023-12-14T02:54:26;13.00;;;11.70;;
10711;SDS011;5407;51.234;6.804;2023-12-14T02:57:05;13.87;;;12.50;;
10711;SDS011;5407;51.234;6.804;2023-12-14T02:59:34;14.40;;;13.00;;
10711;SDS011;5407;51.234;6.804;2023-12-14T03:02:05;14.47;;;13.07;;
10711;SDS011;5407;51.234;6.804;2023-12-14T03:04:37;14.40;;;12.90;;
10711;SDS011;5407;51.234;6.804;2023-12-14T03:07:12;14.97;;;13.37;;
10711;SDS011;5407;51.234;6.804;2023-12-14T03:09:47;15.43;;;13.83;;
10711;SDS011;5407;51.234;6.804;2023-12-14T03:12:19;17.37;;;15.60;;
10711;SDS011;5407;51.234;6.804;2023-12-14T03:14:50;17.43;;;15.70;;
10711;SDS011;5407;51.234;6.804;2023-12-14T03:17:20;18.10;;;16.10;;
10711;SDS011;5407;51.234;6.804;2023-12-14T03:19:51;19.33;;;17.33;;
10711;SDS011;5407;51.234;6.804;2023-12-14T03:22:43;20.80;;;18.03;;
10711;SDS011;5407;51.234;6.804;2023-12-14T03:25:18;20.57;;;18.47;;
10711;SDS011;5407;51.234;6.804;2023-12-14T03:28:32;20.47;;;18.37;;
10711;SDS011;5407;51.234;6.804;2023-12-14T03:31:01;24.77;;;20.30;;
10711;SDS011;5407;51.234;6.804;2023-12-14T03:33:31;21.90;;;19.57;;
10711;SDS011;5407;51.234;6.804;2023-12-14T03:36:02;20.67;;;18.40;;
10711;SDS011;5407;51.234;6.804;2023-12-14T03:38:33;20.37;;;18.27;;
10711;SDS011;5407;51.234;6.804;2023-12-14T03:41:05;21.70;;;18.53;;
10711;SDS011;5407;51.234;6.804;2023-12-14T03:43:35;22.03;;;19.67;;
10711;SDS011;5407;51.234;6.804;2023-12-14T03:46:03;22.43;;;19.23;;
10711;SDS011;5407;51.234;6.804;2023-12-14T03:48:34;22.53;;;20.13;;
10711;SDS011;5407;51.234;6.804;2023-12-14T03:51:02;25.37;;;21.53;;
10711;SDS011;5407;51.234;6.804;2023-12-14T03:53:36;25.23;;;20.73;;
10711;SDS011;5407;51.234;6.804;2023-12-14T03:56:06;24.00;;;19.83;;
10711;SDS011;5407;51.234;6.804;2023-12-14T03:58:39;24.00;;;19.63;;
10711;SDS011;5407;51.234;6.804;2023-12-14T04:01:16;22.40;;;19.27;;
10711;SDS011;5407;51.234;6.804;2023-12-14T04:03:46;20.77;;;18.60;;
10711;SDS011;5407;51.234;6.804;2023-12-14T04:06:18;22.17;;;18.33;;
10711;SDS011;5407;51.234;6.804;2023-12-14T04:08:46;21.77;;;17.40;;
10711;SDS011;5407;51.234;6.804;2023-12-14T04:11:18;19.63;;;17.63;;
10711;SDS011;5407;51.234;6.804;2023-12-14T04:13:48;19.27;;;17.17;;
10711;SDS011;5407;51.234;6.804;2023-12-14T04:16:20;19.30;;;16.90;;
10711;SDS011;5407;51.234;6.804;2023-12-14T04:19:00;19.00;;;16.53;;
10711;SDS011;5407;51.234;6.804;2023-12-14T04:21:30;20.07;;;16.10;;
10711;SDS011;5407;51.234;6.804;2023-12-14T04:24:07;21.50;;;17.43;;
10711;SDS011;5407;51.234;6.804;2023-12-14T04:26:51;22.63;;;18.60;;
10711;SDS011;5407;51.234;6.804;2023-12-14T04:29:21;19.57;;;17.47;;
10711;SDS011;5407;51.234;6.804;2023-12-14T04:32:00;20.60;;;17.77;;
10711;SDS011;5407;51.234;6.804;2023-12-14T04:34:33;19.23;;;17.23;;
10711;SDS011;5407;51.234;6.804;2023-12-14T04:37:01;20.80;;;16.20;;
10711;SDS011;5407;51.234;6.804;2023-12-14T04:39:29;20.40;;;17.43;;
10711;SDS011;5407;51.234;6.804;2023-12-14T04:42:03;20.33;;;15.63;;
10711;SDS011;5407;51.234;6.804;2023-12-14T04:44:34;19.13;;;16.97;;
10711;SDS011;5407;51.234;6.804;2023-12-14T04:47:08;23.00;;;17.97;;
10711;SDS011;5407;51.234;6.804;2023-12-14T04:49:37;23.73;;;18.73;;
10711;SDS011;5407;51.234;6.804;2023-12-14T04:52:10;26.53;;;20.73;;
10711;SDS011;5407;51.234;6.804;2023-12-14T04:54:39;32.07;;;24.00;;
10711;SDS011;5407;51.234;6.804;2023-12-14T04:57:11;30.53;;;24.07;;
10711;SDS011;5407;51.234;6.804;2023-12-14T04:59:42;30.87;;;24.03;;
10711;SDS011;5407;51.234;6.804;2023-12-14T05:02:11;30.93;;;23.17;;
10711;SDS011;5407;51.234;6.804;2023-12-14T05:04:41;32.53;;;23.60;;
10711;SDS011;5407;51.234;6.804;2023-12-14T05:07:08;34.40;;;25.33;;
10711;SDS011;5407;51.234;6.804;2023-12-14T05:09:37;37.90;;;26.90;;
10711;SDS011;5407;51.234;6.804;2023-12-14T05:12:12;42.07;;;29.43;;
10711;SDS011;5407;51.234;6.804;2023-12-14T05:14:42;41.23;;;29.50;;
10711;SDS011;5407;51.234;6.804;2023-12-14T05:17:09;38.97;;;28.03;;
10711;SDS011;5407;51.234;6.804;2023-12-14T05:19:37;37.37;;;27.00;;
10711;SDS011;5407;51.234;6.804;2023-12-14T05:22:05;40.20;;;28.53;;
10711;SDS011;5407;51.234;6.804;2023-12-14T05:24:36;37.67;;;26.23;;
10711;SDS011;5407;51.234;6.804;2023-12-14T05:27:06;35.93;;;25.93;;
10711;SDS011;5407;51.234;6.804;2023-12-14T05:29:34;34.30;;;25.37;;
10711;SDS011;5407;51.234;6.804;2023-12-14T05:32:05;31.13;;;24.23;;
10711;SDS011;5407;51.234;6.804;2023-12-14T05:34:35;28.13;;;23.23;;
10711;SDS011;5407;51.234;6.804;2023-12-14T05:37:03;28.73;;;22.37;;
10711;SDS011;5407;51.234;6.804;2023-12-14T05:39:31;24.20;;;21.13;;
10711;SDS011;5407;51.234;6.804;2023-12-14T05:42:00;25.73;;;20.77;;
10711;SDS011;5407;51.234;6.804;2023-12-14T05:44:30;25.33;;;20.37;;
10711;SDS011;5407;51.234;6.804;2023-12-14T05:46:59;25.47;;;20.83;;
10711;SDS011;5407;51.234;6.804;2023-12-14T05:49:31;28.37;;;22.00;;
10711;SDS011;5407;51.234;6.804;2023-12-14T05:52:03;24.63;;;20.83;;
10711;SDS011;5407;51.234;6.804;2023-12-14T05:54:30;22.50;;;19.90;;
10711;SDS011;5407;51.234;6.804;2023-12-14T05:56:59;25.73;;;20.77;;
10711;SDS011;5407;51.234;6.804;2023-12-14T05:59:37;25.17;;;21.07;;
10711;SDS011;5407;51.234;6.804;2023-12-14T06:02:08;27.83;;;21.90;;
10711;SDS011;5407;51.234;6.804;2023-12-14T06:04:41;25.77;;;20.47;;
10711;SDS011;5407;51.234;6.804;2023-12-14T06:07:16;30.93;;;23.20;;
10711;SDS011;5407;51.234;6.804;2023-12-14T06:09:49;26.10;;;23.20;;
10711;SDS011;5407;51.234;6.804;2023-12-14T06:12:20;26.30;;;23.47;;
10711;SDS011;5407;51.234;6.804;2023-12-14T06:14:52;28.30;;;23.50;;
10711;SDS011;5407;51.234;6.804;2023-12-14T06:17:22;28.67;;;23.23;;
10711;SDS011;5407;51.234;6.804;2023-12-14T06:22:44;24.50;;;21.90;;
10711;SDS011;5407;51.234;6.804;2023-12-14T06:25:15;25.67;;;21.00;;
10711;SDS011;5407;51.234;6.804;2023-12-14T06:27:43;25.40;;;21.70;;
10711;SDS011;5407;51.234;6.804;2023-12-14T06:30:11;27.53;;;21.63;;
10711;SDS011;5407;51.234;6.804;2023-12-14T06:32:48;25.87;;;22.07;;
10711;SDS011;5407;51.234;6.804;2023-12-14T06:35:21;24.97;;;20.50;;
10711;SDS011;5407;51.234;6.804;2023-12-14T06:37:48;26.50;;;19.63;;
10711;SDS011;5407;51.234;6.804;2023-12-14T06:40:15;24.70;;;20.30;;
10711;SDS011;5407;51.234;6.804;2023-12-14T06:42:43;25.10;;;19.40;;
10711;SDS011;5407;51.234;6.804;2023-12-14T06:47:52;20.50;;;17.73;;
10711;SDS011;5407;51.234;6.804;2023-12-14T06:50:43;21.00;;;17.20;;
10711;SDS011;5407;51.234;6.804;2023-12-14T06:53:22;20.63;;;18.43;;
10711;SDS011;5407;51.234;6.804;2023-12-14T06:55:51;22.30;;;18.53;;
10711;SDS011;5407;51.234;6.804;2023-12-14T06:58:24;27.87;;;21.63;;
10711;SDS011;5407;51.234;6.804;2023-12-14T07:00:52;29.97;;;24.23;;
10711;SDS011;5407;51.234;6.804;2023-12-14T07:03:21;31.87;;;25.33;;
10711;SDS011;5407;51.234;6.804;2023-12-14T07:05:54;30.70;;;26.00;;
10711;SDS011;5407;51.234;6.804;2023-12-14T07:08:23;30.90;;;25.43;;
10711;SDS011;5407;51.234;6.804;2023-12-14T07:10:53;38.00;;;28.13;;
10711;SDS011;5407;51.234;6.804;2023-12-14T07:13:22;35.63;;;27.63;;
10711;SDS011;5407;51.234;6.804;2023-12-14T07:15:49;35.60;;;27.30;;
10711;SDS011;5407;51.234;6.804;2023-12-14T07:18:16;38.00;;;29.10;;
10711;SDS011;5407;51.234;6.804;2023-12-14T07:20:43;39.90;;;29.87;;
10711;SDS011;5407;51.234;6.804;2023-12-14T07:23:11;39.77;;;30.00;;
10711;SDS011;5407;51.234;6.804;2023-12-14T07:25:38;42.30;;;31.23;;
10711;SDS011;5407;51.234;6.804;2023-12-14T07:28:05;42.17;;;32.40;;
10711;SDS011;5407;51.234;6.804;2023-12-14T07:30:32;41.53;;;30.87;;
10711;SDS011;5407;51.234;6.804;2023-12-14T07:32:59;44.00;;;32.23;;
10711;SDS011;5407;51.234;6.804;2023-12-14T07:35:26;43.70;;;31.00;;
10711;SDS011;5407;51.234;6.804;2023-12-14T07:37:53;40.63;;;31.47;;
10711;SDS011;5407;51.234;6.804;2023-12-14T07:40:23;40.10;;;30.73;;
10711;SDS011;5407;51.234;6.804;2023-12-14T07:42:52;40.33;;;29.23;;
10711;SDS011;5407;51.234;6.804;2023-12-14T07:45:25;39.33;;;30.13;;
10711;SDS011;5407;51.234;6.804;2023-12-14T07:47:58;39.20;;;30.00;;
10711;SDS011;5407;51.234;6.804;2023-12-14T07:50:41;41.50;;;31.47;;
10711;SDS011;5407;51.234;6.804;2023-12-14T07:53:13;42.10;;;31.83;;
10711;SDS011;5407;51.234;6.804;2023-12-14T07:55:47;42.57;;;33.07;;
10711;SDS011;5407;51.234;6.804;2023-12-14T07:58:20;43.67;;;35.10;;
10711;SDS011;5407;51.234;6.804;2023-12-14T08:00:56;49.60;;;34.97;;
10711;SDS011;5407;51.234;6.804;2023-12-14T08:03:35;44.83;;;33.87;;
10711;SDS011;5407;51.234;6.804;2023-12-14T08:06:20;43.87;;;33.30;;
10711;SDS011;5407;51.234;6.804;2023-12-14T08:08:54;42.60;;;32.67;;
10711;SDS011;5407;51.234;6.804;2023-12-14T08:11:48;39.90;;;32.10;;
10711;SDS011;5407;51.234;6.804;2023-12-14T08:14:18;40.07;;;32.13;;
10711;SDS011;5407;51.234;6.804;2023-12-14T08:16:55;40.90;;;31.57;;
10711;SDS011;5407;51.234;6.804;2023-12-14T08:19:23;36.73;;;30.80;;
10711;SDS011;5407;51.234;6.804;2023-12-14T08:21:57;38.77;;;31.53;;
10711;SDS011;5407;51.234;6.804;2023-12-14T08:24:34;37.87;;;31.60;;
10711;SDS011;5407;51.234;6.804;2023-12-14T08:27:07;37.77;;;31.50;;
10711;SDS011;5407;51.234;6.804;2023-12-14T08:29:43;37.53;;;32.60;;
10711;SDS011;5407;51.234;6.804;2023-12-14T08:32:19;41.33;;;33.93;;
10711;SDS011;5407;51.234;6.804;2023-12-14T08:34:51;39.13;;;31.50;;
10711;SDS011;5407;51.234;6.804;2023-12-14T08:37:25;37.47;;;32.73;;
10711;SDS011;5407;51.234;6.804;2023-12-14T08:40:02;42.30;;;33.93;;
10711;SDS011;5407;51.234;6.804;2023-12-14T08:42:39;41.00;;;33.70;;
10711;SDS011;5407;51.234;6.804;2023-12-14T08:45:17;42.13;;;34.73;;
10711;SDS011;5407;51.234;6.804;2023-12-14T08:47:46;45.67;;;36.00;;
10711;SDS011;5407;51.234;6.804;2023-12-14T08:50:17;48.17;;;37.17;;
10711;SDS011;5407;51.234;6.804;2023-12-14T08:52:59;46.73;;;37.60;;
10711;SDS011;5407;51.234;6.804;2023-12-14T08:55:30;47.17;;;36.33;;
10711;SDS011;5407;51.234;6.804;2023-12-14T08:58:04;44.97;;;37.13;;
10711;SDS011;5407;51.234;6.804;2023-12-14T09:00:42;42.17;;;34.27;;
10711;SDS011;5407;51.234;6.804;2023-12-14T09:03:33;39.60;;;33.20;;
10711;SDS011;5407;51.234;6.804;2023-12-14T09:06:24;43.67;;;35.00;;
10711;SDS011;5407;51.234;6.804;2023-12-14T09:09:04;43.27;;;32.93;;
10711;SDS011;5407;51.234;6.804;2023-12-14T09:12:01;40.33;;;33.80;;
10711;SDS011;5407;51.234;6.804;2023-12-14T09:14:40;40.83;;;34.27;;
10711;SDS011;5407;51.234;6.804;2023-12-14T09:17:09;38.07;;;32.93;;
10711;SDS011;5407;51.234;6.804;2023-12-14T09:19:41;36.10;;;32.30;;
10711;SDS011;5407;51.234;6.804;2023-12-14T09:25:08;35.27;;;30.47;;
10711;SDS011;5407;51.234;6.804;2023-12-14T09:27:37;33.80;;;30.17;;
10711;SDS011;5407;51.234;6.804;2023-12-14T09:30:11;35.63;;;31.77;;
10711;SDS011;5407;51.234;6.804;2023-12-14T09:32:50;37.77;;;33.33;;
10711;SDS011;5407;51.234;6.804;2023-12-14T09:35:24;41.13;;;34.63;;
10711;SDS011;5407;51.234;6.804;2023-12-14T09:38:02;46.93;;;37.43;;
10711;SDS011;5407;51.234;6.804;2023-12-14T09:40:39;40.30;;;34.70;;
10711;SDS011;5407;51.234;6.804;2023-12-14T09:43:06;41.53;;;35.80;;
10711;SDS011;5407;51.234;6.804;2023-12-14T09:45:35;41.17;;;36.57;;
10711;SDS011;5407;51.234;6.804;2023-12-14T09:48:06;45.07;;;37.53;;
10711;SDS011;5407;51.234;6.804;2023-12-14T09:50:33;47.27;;;38.27;;
10711;SDS011;5407;51.234;6.804;2023-12-14T09:53:01;50.10;;;40.93;;
10711;SDS011;5407;51.234;6.804;2023-12-14T09:55:28;49.53;;;39.30;;
10711;SDS011;5407;51.234;6.804;2023-12-14T09:57:56;43.30;;;36.13;;
10711;SDS011;5407;51.234;6.804;2023-12-14T10:00:33;38.77;;;33.03;;
10711;SDS011;5407;51.234;6.804;2023-12-14T10:05:47;38.93;;;31.67;;
10711;SDS011;5407;51.234;6.804;2023-12-14T10:08:16;36.43;;;30.73;;
10711;SDS011;5407;51.234;6.804;2023-12-14T10:10:43;33.13;;;29.57;;
10711;SDS011;5407;51.234;6.804;2023-12-14T10:13:10;34.97;;;29.53;;
10711;SDS011;5407;51.234;6.804;2023-12-14T10:15:41;33.40;;;27.27;;
10711;SDS011;5407;51.234;6.804;2023-12-14T10:18:08;30.53;;;27.23;;
10711;SDS011;5407;51.234;6.804;2023-12-14T10:20:37;33.80;;;27.50;;
10711;SDS011;5407;51.234;6.804;2023-12-14T10:23:06;29.73;;;25.93;;
10711;SDS011;5407;51.234;6.804;2023-12-14T10:25:35;29.63;;;26.43;;
10711;SDS011;5407;51.234;6.804;2023-12-14T10:28:02;33.37;;;28.30;;
10711;SDS011;5407;51.234;6.804;2023-12-14T10:30:29;34.10;;;28.63;;
10711;SDS011;5407;51.234;6.804;2023-12-14T10:32:58;36.47;;;30.87;;
10711;SDS011;5407;51.234;6.804;2023-12-14T10:35:25;34.80;;;31.10;;
10711;SDS011;5407;51.234;6.804;2023-12-14T10:37:58;33.10;;;29.50;;
10711;SDS011;5407;51.234;6.804;2023-12-14T10:40:31;32.17;;;28.70;;
10711;SDS011;5407;51.234;6.804;2023-12-14T10:42:59;29.40;;;26.37;;
10711;SDS011;5407;51.234;6.804;2023-12-14T10:45:26;30.70;;;27.30;;
10711;SDS011;5407;51.234;6.804;2023-12-14T10:47:56;29.23;;;26.20;;
10711;SDS011;5407;51.234;6.804;2023-12-14T10:50:36;28.13;;;25.13;;
10711;SDS011;5407;51.234;6.804;2023-12-14T10:53:09;27.77;;;24.67;;
10711;SDS011;5407;51.234;6.804;2023-12-14T10:55:43;26.97;;;24.17;;
10711;SDS011;5407;51.234;6.804;2023-12-14T10:58:15;27.00;;;24.13;;
10711;SDS011;5407;51.234;6.804;2023-12-14T11:00:57;26.10;;;23.40;;
10711;SDS011;5407;51.234;6.804;2023-12-14T11:03:32;23.60;;;21.10;;
10711;SDS011;5407;51.234;6.804;2023-12-14T11:06:01;23.50;;;20.27;;
10711;SDS011;5407;51.234;6.804;2023-12-14T11:08:45;22.77;;;18.57;;
10711;SDS011;5407;51.234;6.804;2023-12-14T11:11:13;23.33;;;18.97;;
10711;SDS011;5407;51.234;6.804;2023-12-14T11:13:50;21.57;;;18.40;;
10711;SDS011;5407;51.234;6.804;2023-12-14T11:16:26;23.10;;;19.20;;
10711;SDS011;5407;51.234;6.804;2023-12-14T11:22:09;24.90;;;20.33;;
10711;SDS011;5407;51.234;6.804;2023-12-14T11:24:53;24.00;;;20.93;;
10711;SDS011;5407;51.234;6.804;2023-12-14T11:27:29;23.40;;;20.90;;
10711;SDS011;5407;51.234;6.804;2023-12-14T11:30:12;24.33;;;20.57;;
10711;SDS011;5407;51.234;6.804;2023-12-14T11:32:42;23.57;;;20.87;;
10711;SDS011;5407;51.234;6.804;2023-12-14T11:35:10;22.57;;;20.27;;
10711;SDS011;5407;51.234;6.804;2023-12-14T11:37:38;21.33;;;19.13;;
10711;SDS011;5407;51.234;6.804;2023-12-14T11:40:09;21.30;;;19.10;;
10711;SDS011;5407;51.234;6.804;2023-12-14T11:42:38;19.97;;;17.97;;
10711;SDS011;5407;51.234;6.804;2023-12-14T11:45:06;19.30;;;17.40;;
10711;SDS011;5407;51.234;6.804;2023-12-14T11:47:34;20.27;;;18.17;;
10711;SDS011;5407;51.234;6.804;2023-12-14T11:50:01;19.03;;;17.00;;
10711;SDS011;5407;51.234;6.804;2023-12-14T11:52:29;18.13;;;16.17;;
10711;SDS011;5407;51.234;6.804;2023-12-14T11:54:56;18.23;;;16.33;;
10711;SDS011;5407;51.234;6.804;2023-12-14T11:57:32;18.87;;;16.20;;
10711;SDS011;5407;51.234;6.804;2023-12-14T12:00:00;18.87;;;16.30;;
10711;SDS011;5407;51.234;6.804;2023-12-14T12:02:30;17.50;;;15.60;;
10711;SDS011;5407;51.234;6.804;2023-12-14T12:05:01;18.33;;;16.30;;
10711;SDS011;5407;51.234;6.804;2023-12-14T12:07:29;16.23;;;14.57;;
10711;SDS011;5407;51.234;6.804;2023-12-14T12:09:58;15.77;;;14.27;;
10711;SDS011;5407;51.234;6.804;2023-12-14T12:12:25;18.20;;;16.37;;
10711;SDS011;5407;51.234;6.804;2023-12-14T12:14:56;16.20;;;14.43;;
10711;SDS011;5407;51.234;6.804;2023-12-14T12:17:24;19.00;;;16.87;;
10711;SDS011;5407;51.234;6.804;2023-12-14T12:19:51;19.20;;;16.23;;
10711;SDS011;5407;51.234;6.804;2023-12-14T12:22:18;17.93;;;14.10;;
10711;SDS011;5407;51.234;6.804;2023-12-14T12:24:45;16.00;;;14.30;;
10711;SDS011;5407;51.234;6.804;2023-12-14T12:27:12;16.67;;;14.87;;
10711;SDS011;5407;51.234;6.804;2023-12-14T12:29:40;21.43;;;18.97;;
10711;SDS011;5407;51.234;6.804;2023-12-14T12:32:08;19.50;;;16.17;;
10711;SDS011;5407;51.234;6.804;2023-12-14T12:34:35;14.60;;;10.97;;
10711;SDS011;5407;51.234;6.804;2023-12-14T12:37:03;12.87;;;10.53;;
10711;SDS011;5407;51.234;6.804;2023-12-14T12:39:34;11.70;;;10.20;;
10711;SDS011;5407;51.234;6.804;2023-12-14T12:42:02;11.10;;;9.83;;
10711;SDS011;5407;51.234;6.804;2023-12-14T12:44:29;10.90;;;9.80;;
10711;SDS011;5407;51.234;6.804;2023-12-14T12:46:56;10.80;;;9.70;;
10711;SDS011;5407;51.234;6.804;2023-12-14T12:49:27;11.43;;;8.13;;
10711;SDS011;5407;51.234;6.804;2023-12-14T12:52:02;9.03;;;8.07;;
10711;SDS011;5407;51.234;6.804;2023-12-14T12:54:34;8.80;;;7.90;;
10711;SDS011;5407;51.234;6.804;2023-12-14T12:57:02;8.60;;;7.70;;
10711;SDS011;5407;51.234;6.804;2023-12-14T12:59:30;9.50;;;7.13;;
10711;SDS011;5407;51.234;6.804;2023-12-14T13:01:58;7.73;;;6.93;;
10711;SDS011;5407;51.234;6.804;2023-12-14T13:04:26;6.97;;;6.27;;
10711;SDS011;5407;51.234;6.804;2023-12-14T13:06:55;7.70;;;6.90;;
10711;SDS011;5407;51.234;6.804;2023-12-14T13:09:23;7.40;;;6.70;;
10711;SDS011;5407;51.234;6.804;2023-12-14T13:11:52;8.20;;;7.30;;
10711;SDS011;5407;51.234;6.804;2023-12-14T13:14:26;12.30;;;7.97;;
10711;SDS011;5407;51.234;6.804;2023-12-14T13:16:58;8.13;;;7.37;;
10711;SDS011;5407;51.234;6.804;2023-12-14T13:19:38;8.80;;;7.57;;
10711;SDS011;5407;51.234;6.804;2023-12-14T13:22:06;7.63;;;6.80;;
10711;SDS011;5407;51.234;6.804;2023-12-14T13:24:49;9.77;;;8.40;;
10711;SDS011;5407;51.234;6.804;2023-12-14T13:27:25;7.77;;;7.07;;
10711;SDS011;5407;51.234;6.804;2023-12-14T13:29:57;7.90;;;7.10;;
10711;SDS011;5407;51.234;6.804;2023-12-14T13:32:25;7.53;;;6.73;;
10711;SDS011;5407;51.234;6.804;2023-12-14T13:35:06;7.47;;;6.77;;
10711;SDS011;5407;51.234;6.804;2023-12-14T13:37:34;7.93;;;6.93;;
10711;SDS011;5407;51.234;6.804;2023-12-14T13:40:01;10.17;;;6.83;;
10711;SDS011;5407;51.234;6.804;2023-12-14T13:42:29;7.87;;;7.07;;
10711;SDS011;5407;51.234;6.804;2023-12-14T13:45:04;9.60;;;7.10;;
10711;SDS011;5407;51.234;6.804;2023-12-14T13:47:34;9.10;;;7.50;;
10711;SDS011;5407;51.234;6.804;2023-12-14T13:50:04;8.30;;;7.13;;
10711;SDS011;5407;51.234;6.804;2023-12-14T13:52:34;8.77;;;7.10;;
10711;SDS011;5407;51.234;6.804;2023-12-14T13:55:01;10.00;;;7.67;;
10711;SDS011;5407;51.234;6.804;2023-12-14T13:57:28;9.93;;;7.57;;
10711;SDS011;5407;51.234;6.804;2023-12-14T13:59:55;9.50;;;8.03;;
10711;SDS011;5407;51.234;6.804;2023-12-14T14:02:22;9.13;;;7.53;;
10711;SDS011;5407;51.234;6.804;2023-12-14T14:04:52;8.73;;;7.93;;
10711;SDS011;5407;51.234;6.804;2023-12-14T14:07:20;9.57;;;7.97;;
10711;SDS011;5407;51.234;6.804;2023-12-14T14:09:47;13.33;;;7.93;;
10711;SDS011;5407;51.234;6.804;2023-12-14T14:12:14;10.00;;;7.47;;
10711;SDS011;5407;51.234;6.804;2023-12-14T14:14:42;9.20;;;7.93;;
10711;SDS011;5407;51.234;6.804;2023-12-14T14:17:10;8.10;;;7.30;;
10711;SDS011;5407;51.234;6.804;2023-12-14T14:19:44;8.13;;;7.33;;
10711;SDS011;5407;51.234;6.804;2023-12-14T14:22:14;9.50;;;7.60;;
10711;SDS011;5407;51.234;6.804;2023-12-14T14:24:51;10.30;;;7.20;;
10711;SDS011;5407;51.234;6.804;2023-12-14T14:27:28;8.43;;;7.67;;
10711;SDS011;5407;51.234;6.804;2023-12-14T14:29:55;11.63;;;8.20;;
10711;SDS011;5407;51.234;6.804;2023-12-14T14:32:23;8.50;;;7.63;;
10711;SDS011;5407;51.234;6.804;2023-12-14T14:34:50;8.83;;;7.90;;
10711;SDS011;5407;51.234;6.804;2023-12-14T14:37:24;10.50;;;7.67;;
10711;SDS011;5407;51.234;6.804;2023-12-14T14:39:55;10.20;;;8.00;;
10711;SDS011;5407;51.234;6.804;2023-12-14T14:42:30;12.17;;;9.17;;
10711;SDS011;5407;51.234;6.804;2023-12-14T14:44:57;17.83;;;13.03;;
10711;SDS011;5407;51.234;6.804;2023-12-14T14:47:25;13.10;;;11.53;;
10711;SDS011;5407;51.234;6.804;2023-12-14T14:49:53;9.87;;;8.87;;
10711;SDS011;5407;51.234;6.804;2023-12-14T14:52:22;12.63;;;9.60;;
10711;SDS011;5407;51.234;6.804;2023-12-14T14:54:49;11.97;;;8.43;;
10711;SDS011;5407;51.234;6.804;2023-12-14T14:57:18;9.13;;;8.07;;
10711;SDS011;5407;51.234;6.804;2023-12-14T14:59:45;10.63;;;9.50;;
10711;SDS011;5407;51.234;6.804;2023-12-14T15:02:11;17.80;;;14.53;;
10711;SDS011;5407;51.234;6.804;2023-12-14T15:04:38;13.07;;;10.17;;
10711;SDS011;5407;51.234;6.804;2023-12-14T15:07:05;13.83;;;11.00;;
10711;SDS011;5407;51.234;6.804;2023-12-14T15:09:33;9.10;;;7.47;;
10711;SDS011;5407;51.234;6.804;2023-12-14T15:12:00;7.97;;;7.27;;
10711;SDS011;5407;51.234;6.804;2023-12-14T15:14:29;8.50;;;7.70;;
10711;SDS011;5407;51.234;6.804;2023-12-14T15:17:01;11.87;;;8.20;;
10711;SDS011;5407;51.234;6.804;2023-12-14T15:19:29;9.13;;;8.20;;
10711;SDS011;5407;51.234;6.804;2023-12-14T15:21:56;8.60;;;7.73;;